Klamath Air Force Station, California
Current Conditions -  °F | °C
As of 8:56 PM on Friday 24 Oct 2014 (Local Time) from KCEC Reporting Station
Clear Clear  
Wind Chill: 62°   Ceiling: Unl
Heat Index: 62°   Visibility: 10mi
Dew Point: 56°   Wind: 13mph
Humidity: 80%   Direction: 160°SSE
Pressure: 29.68"   Gusts: NA
Location:  41.6217°N, 123.995°W
Report Text: KCEC 250356Z AUTO 16011KT 10SM CLR 17/13 A2968 RMK AO2 SLP049 T01670133
Loading
Personal Weather Stations






























Interactive Weather Map
Tropical Storm Tracking
New forecast layout! Learn more

10-Day Weather Forecast

Advertisements
Track Severe Weather on mobile